UKOH/KHE METAR and TAF weather

Enter ICAO airport designator
Station Type Date Time Source
UKOH METAR 2021/05/12 02:00 UTC NOAA

UKOH 120200Z 02002MPS CAVOK 05/03 Q1013 NOSIG


Station Type Date Time Source
UKOH Decoded METAR 2021/05/12 02:00 UTC NOAA

Station name not available
May 11, 2021 - 10:00 PM EDT / 2021.05.12 0200 UTC
Wind: from the NNE (020 degrees) at 4 MPH (4 KT):0
Visibility: greater than 7 mile(s):0
Temperature: 41 F (5 C)
Dew Point: 37 F (3 C)
Relative Humidity: 86%
Pressure (altimeter): 29.91 in. Hg (1013 hPa)
ob: UKOH 120200Z 02002MPS CAVOK 05/03 Q1013 NOSIG
cycle: 2

Station Type Date Time Source
UKOH TAF UTC NOAA

Error!

Example: see airport list